createdAt,value
2024-01-15T00:00:02.155Z,15.49
2024-01-15T00:02:29.135Z,15.55
2024-01-15T00:04:56.032Z,15.57
2024-01-15T00:07:23.558Z,15.51
2024-01-15T00:09:50.526Z,15.38
2024-01-15T00:12:17.447Z,15.59
2024-01-15T00:14:44.465Z,15.58
2024-01-15T00:17:11.378Z,15.62
2024-01-15T00:19:38.496Z,15.58
2024-01-15T00:22:05.851Z,15.62
2024-01-15T00:24:32.851Z,15.54
2024-01-15T00:26:59.870Z,15.51
2024-01-15T00:29:27.018Z,15.53
2024-01-15T00:31:53.948Z,15.61
2024-01-15T00:34:21.043Z,15.61
2024-01-15T00:36:48.096Z,15.57
2024-01-15T00:39:15.408Z,15.58
2024-01-15T00:41:42.321Z,15.55
2024-01-15T00:44:09.495Z,15.53
2024-01-15T00:46:46.939Z,15.39
2024-01-15T00:49:15.020Z,15.41
2024-01-15T00:51:42.411Z,15.46
2024-01-15T00:54:09.749Z,15.50
2024-01-15T00:56:36.857Z,15.51
2024-01-15T00:59:03.872Z,15.47
2024-01-15T01:01:31.067Z,15.50
2024-01-15T01:03:58.572Z,15.45
2024-01-15T01:06:25.901Z,15.46
2024-01-15T01:08:52.863Z,15.33
2024-01-15T01:11:20.138Z,15.44
2024-01-15T01:13:47.040Z,15.44
2024-01-15T01:16:13.991Z,15.44
2024-01-15T01:18:41.250Z,15.41
2024-01-15T01:21:08.385Z,15.44
2024-01-15T01:23:35.592Z,15.46
2024-01-15T01:26:03.065Z,15.46
2024-01-15T01:28:29.916Z,15.51
2024-01-15T01:30:57.075Z,15.50
2024-01-15T01:33:24.373Z,15.49
2024-01-15T01:35:51.422Z,15.46
2024-01-15T01:38:18.352Z,15.36
2024-01-15T01:40:45.434Z,15.48
2024-01-15T01:43:12.584Z,15.46
2024-01-15T01:45:40.169Z,15.50
2024-01-15T01:48:08.208Z,15.53
2024-01-15T01:50:35.243Z,15.52
2024-01-15T01:53:05.215Z,15.53
2024-01-15T01:55:32.426Z,15.53
2024-01-15T01:57:59.360Z,15.52
2024-01-15T02:00:26.458Z,15.49
2024-01-15T02:02:53.387Z,15.48
2024-01-15T02:05:21.700Z,15.50
2024-01-15T02:07:48.653Z,15.49
2024-01-15T02:10:15.904Z,15.53
2024-01-15T02:12:44.326Z,15.53
2024-01-15T02:15:11.428Z,15.47
2024-01-15T02:18:04.867Z,15.56
2024-01-15T02:20:32.921Z,15.58
2024-01-15T02:23:18.075Z,15.59
2024-01-15T02:25:46.761Z,15.60
2024-01-15T02:28:18.148Z,15.59
2024-01-15T02:30:45.773Z,15.59
2024-01-15T02:33:13.570Z,15.57
2024-01-15T02:35:40.826Z,15.57
2024-01-15T02:38:08.054Z,15.58
2024-01-15T02:40:35.156Z,15.58
2024-01-15T02:43:02.164Z,15.57
2024-01-15T02:45:29.237Z,15.55
2024-01-15T02:47:56.542Z,15.56
2024-01-15T02:50:23.742Z,15.57
2024-01-15T02:52:50.831Z,15.56
2024-01-15T02:55:17.777Z,15.56
2024-01-15T02:57:44.775Z,15.55
2024-01-15T03:00:13.531Z,15.54
2024-01-15T03:02:42.897Z,15.51
2024-01-15T03:05:11.561Z,15.55
2024-01-15T03:07:38.574Z,15.55
2024-01-15T03:10:07.144Z,15.57
2024-01-15T03:12:34.172Z,15.57
2024-01-15T03:15:01.259Z,15.54
2024-01-15T03:17:28.396Z,15.56
2024-01-15T03:19:55.807Z,15.52
2024-01-15T03:22:22.940Z,15.52
2024-01-15T03:24:49.948Z,15.54
2024-01-15T03:27:16.993Z,15.51
2024-01-15T03:29:43.987Z,15.51
2024-01-15T03:32:11.222Z,15.50
2024-01-15T03:34:38.315Z,15.49
2024-01-15T03:37:05.385Z,15.49
2024-01-15T03:39:32.645Z,15.47
2024-01-15T03:42:00.197Z,15.48
2024-01-15T03:44:27.411Z,15.46
2024-01-15T03:46:55.094Z,15.45
2024-01-15T03:49:22.156Z,15.48
2024-01-15T03:51:49.440Z,15.48
2024-01-15T03:54:18.341Z,15.48
2024-01-15T03:56:46.812Z,15.44
2024-01-15T03:59:13.850Z,15.46
2024-01-15T04:01:40.859Z,15.48
2024-01-15T04:04:07.844Z,15.51
2024-01-15T04:06:34.964Z,15.50
2024-01-15T04:09:03.367Z,15.48
2024-01-15T04:11:30.317Z,15.50
2024-01-15T04:13:57.304Z,15.51
2024-01-15T04:16:24.237Z,15.50
2024-01-15T04:18:51.276Z,15.49
2024-01-15T04:21:21.442Z,15.49
2024-01-15T04:23:48.484Z,15.51
2024-01-15T04:26:15.510Z,15.48
2024-01-15T04:28:42.881Z,15.47
2024-01-15T04:31:09.852Z,15.41
2024-01-15T04:33:36.989Z,15.43
2024-01-15T04:36:05.883Z,15.47
2024-01-15T04:38:34.416Z,15.38
2024-01-15T04:41:01.403Z,15.37
2024-01-15T04:43:28.435Z,15.37
2024-01-15T04:45:55.553Z,15.45
2024-01-15T04:48:24.332Z,15.46
2024-01-15T04:50:52.063Z,15.49
2024-01-15T04:53:18.982Z,15.49
2024-01-15T04:55:45.895Z,15.48
2024-01-15T04:58:12.902Z,15.52
2024-01-15T05:00:40.596Z,15.50
2024-01-15T05:03:07.748Z,15.51
2024-01-15T05:05:35.464Z,15.54
2024-01-15T05:08:02.382Z,15.51
2024-01-15T05:10:29.364Z,15.53
2024-01-15T05:12:56.503Z,15.54
2024-01-15T05:15:23.461Z,15.51
2024-01-15T05:17:50.581Z,15.51
2024-01-15T05:20:18.211Z,15.50
2024-01-15T05:22:45.173Z,15.51
2024-01-15T05:25:12.218Z,15.49
2024-01-15T05:27:39.339Z,15.48
2024-01-15T05:30:06.826Z,15.44
2024-01-15T05:32:33.813Z,15.47
2024-01-15T05:35:00.917Z,15.47
2024-01-15T05:37:27.899Z,15.47
2024-01-15T05:39:55.389Z,15.49
2024-01-15T05:42:22.537Z,15.48
2024-01-15T05:44:49.637Z,15.49
2024-01-15T05:47:16.510Z,15.46
2024-01-15T05:49:43.644Z,15.49
2024-01-15T05:52:10.724Z,15.46
2024-01-15T05:54:37.684Z,15.47
2024-01-15T05:57:04.904Z,15.44
2024-01-15T05:59:33.515Z,15.50
2024-01-15T06:02:00.511Z,15.45
2024-01-15T06:04:27.995Z,15.51
2024-01-15T06:06:55.025Z,15.50
2024-01-15T06:09:21.930Z,15.36
2024-01-15T06:11:49.420Z,15.45
2024-01-15T06:14:16.460Z,15.48
2024-01-15T06:16:43.710Z,15.44
2024-01-15T06:19:10.919Z,15.46
2024-01-15T06:21:37.986Z,15.45
2024-01-15T06:24:05.098Z,15.40
2024-01-15T06:26:32.028Z,15.40
2024-01-15T06:28:58.893Z,15.44
2024-01-15T06:31:25.940Z,15.39
2024-01-15T06:33:53.264Z,15.41
2024-01-15T06:36:20.378Z,15.40
2024-01-15T06:38:47.327Z,15.45
2024-01-15T06:41:14.483Z,15.39
2024-01-15T06:43:41.387Z,15.50
2024-01-15T06:46:08.982Z,15.44
2024-01-15T06:48:36.409Z,15.47
2024-01-15T06:51:03.541Z,15.47
2024-01-15T06:53:30.514Z,15.50
2024-01-15T06:55:57.506Z,15.51
2024-01-15T06:58:24.435Z,15.53
2024-01-15T07:00:51.554Z,15.54
2024-01-15T07:03:18.829Z,15.53
2024-01-15T07:05:46.099Z,15.52
2024-01-15T07:08:13.151Z,15.54
2024-01-15T07:10:40.213Z,15.55
2024-01-15T07:13:07.157Z,15.60
2024-01-15T07:15:34.274Z,15.58
2024-01-15T07:18:01.287Z,15.57
2024-01-15T07:20:28.522Z,15.58
2024-01-15T07:22:55.403Z,15.62
2024-01-15T07:25:22.510Z,15.53
2024-01-15T07:27:49.638Z,15.61
2024-01-15T07:30:16.885Z,15.56
2024-01-15T07:32:44.368Z,15.58
2024-01-15T07:35:11.910Z,15.60
2024-01-15T07:37:38.813Z,15.62
2024-01-15T07:40:08.305Z,15.62
2024-01-15T07:42:36.176Z,15.61
2024-01-15T07:45:04.606Z,15.60
2024-01-15T07:47:31.957Z,15.60
2024-01-15T07:50:03.103Z,15.62
2024-01-15T07:52:32.697Z,15.62
2024-01-15T07:55:02.485Z,15.62
2024-01-15T07:57:29.667Z,15.64
2024-01-15T07:59:56.652Z,15.63
2024-01-15T08:02:23.526Z,15.62
2024-01-15T08:04:50.460Z,15.66
2024-01-15T08:07:17.593Z,15.66
2024-01-15T08:09:44.585Z,15.66
2024-01-15T08:12:11.629Z,15.67
2024-01-15T08:14:38.793Z,15.68
2024-01-15T08:17:06.060Z,15.62
2024-01-15T08:19:33.291Z,15.65
2024-01-15T08:22:00.402Z,15.64
2024-01-15T08:24:27.366Z,15.63
2024-01-15T08:26:54.311Z,15.60
2024-01-15T08:29:22.451Z,15.61
2024-01-15T08:31:49.854Z,15.60
2024-01-15T08:34:16.910Z,15.62
2024-01-15T08:36:44.091Z,15.64
2024-01-15T08:39:11.029Z,15.64
2024-01-15T08:41:37.986Z,15.67
2024-01-15T08:44:05.246Z,15.62
2024-01-15T08:46:32.233Z,15.66
2024-01-15T08:48:59.336Z,15.67
2024-01-15T08:51:26.866Z,15.57
2024-01-15T08:53:53.988Z,15.67
2024-01-15T08:56:20.859Z,15.69
2024-01-15T08:58:48.284Z,15.71
2024-01-15T09:01:15.426Z,15.72
2024-01-15T09:03:45.456Z,15.75
2024-01-15T09:06:12.605Z,15.77
2024-01-15T09:08:39.819Z,15.82
2024-01-15T09:11:06.684Z,15.81
2024-01-15T09:13:35.956Z,15.83
2024-01-15T09:16:03.615Z,15.83
2024-01-15T09:18:31.182Z,15.83
2024-01-15T09:20:58.324Z,15.82
2024-01-15T09:23:26.593Z,15.81
2024-01-15T09:25:54.507Z,15.87
2024-01-15T09:28:21.910Z,15.88
2024-01-15T09:30:49.019Z,15.85
2024-01-15T09:33:16.170Z,15.86
2024-01-15T09:35:43.293Z,15.87
2024-01-15T09:38:10.194Z,15.85
2024-01-15T09:40:37.068Z,15.92
2024-01-15T09:43:05.303Z,15.90
2024-01-15T09:45:32.597Z,15.80
2024-01-15T09:47:59.575Z,15.80
2024-01-15T09:50:27.887Z,15.91
2024-01-15T09:52:55.622Z,15.90
2024-01-15T09:55:22.611Z,15.82
2024-01-15T09:57:50.078Z,15.83
2024-01-15T10:00:19.255Z,15.91
2024-01-15T10:02:46.456Z,15.84
2024-01-15T10:05:13.539Z,15.69
2024-01-15T10:07:41.265Z,15.76
2024-01-15T10:10:11.421Z,15.70
2024-01-15T10:12:39.080Z,15.80
2024-01-15T10:15:06.551Z,15.68
2024-01-15T10:17:33.478Z,15.67
2024-01-15T10:20:00.594Z,15.65
2024-01-15T10:22:27.531Z,15.69
2024-01-15T10:24:54.655Z,15.65
2024-01-15T10:27:21.895Z,15.67
2024-01-15T10:29:49.249Z,15.70
2024-01-15T10:32:16.094Z,15.56
2024-01-15T10:34:44.734Z,15.67
2024-01-15T10:37:12.062Z,15.62
2024-01-15T10:39:39.832Z,15.54
2024-01-15T10:42:08.433Z,15.48
2024-01-15T10:44:36.072Z,15.49
2024-01-15T10:47:03.183Z,15.53
2024-01-15T10:49:33.231Z,15.52
2024-01-15T10:52:02.757Z,15.55
2024-01-15T10:54:29.874Z,15.52
2024-01-15T10:57:00.262Z,15.49
2024-01-15T10:59:27.198Z,15.59
2024-01-15T11:01:55.949Z,15.65
2024-01-15T11:04:25.008Z,15.64
2024-01-15T11:06:55.440Z,15.68
2024-01-15T11:09:23.113Z,15.66
2024-01-15T11:11:52.119Z,15.72
2024-01-15T11:14:46.793Z,15.66
2024-01-15T11:17:14.732Z,15.71
2024-01-15T11:19:45.173Z,15.79
2024-01-15T11:22:31.047Z,15.77
2024-01-15T11:24:59.367Z,15.75
2024-01-15T11:27:43.320Z,15.75
2024-01-15T11:30:12.475Z,15.70
2024-01-15T11:32:43.020Z,15.57
2024-01-15T11:35:10.923Z,15.78
2024-01-15T11:37:53.825Z,15.81
2024-01-15T11:40:39.884Z,15.82
2024-01-15T11:43:08.521Z,15.80
2024-01-15T11:45:35.662Z,15.82
2024-01-15T11:48:12.326Z,15.77
2024-01-15T11:50:41.521Z,15.71
2024-01-15T11:53:15.843Z,15.77
2024-01-15T11:55:42.944Z,15.78
2024-01-15T11:58:13.185Z,15.75
2024-01-15T12:00:47.631Z,15.68
2024-01-15T12:03:14.640Z,15.78
2024-01-15T12:05:43.297Z,15.83
2024-01-15T12:08:13.199Z,15.82
2024-01-15T12:10:42.576Z,15.77
2024-01-15T12:13:14.536Z,15.85
2024-01-15T12:15:43.324Z,15.78
2024-01-15T12:18:11.769Z,15.78
2024-01-15T12:20:39.003Z,15.80
2024-01-15T12:23:08.776Z,15.75
2024-01-15T12:25:36.478Z,15.69
2024-01-15T12:28:03.646Z,15.63
2024-01-15T12:30:33.214Z,15.66
2024-01-15T12:33:04.360Z,15.61
2024-01-15T12:35:31.997Z,15.51
2024-01-15T12:37:59.069Z,15.53
2024-01-15T12:40:26.660Z,15.54
2024-01-15T12:42:53.698Z,15.61
2024-01-15T12:45:20.942Z,15.56
2024-01-15T12:47:48.097Z,15.51
2024-01-15T12:50:19.707Z,15.50
2024-01-15T12:52:48.208Z,15.51
2024-01-15T12:55:16.274Z,15.57
2024-01-15T12:57:43.804Z,15.53
2024-01-15T13:00:14.866Z,15.56
2024-01-15T13:02:43.796Z,15.52
2024-01-15T13:05:15.892Z,15.52
2024-01-15T13:07:44.512Z,15.40
2024-01-15T13:10:12.074Z,15.60
2024-01-15T13:12:39.680Z,15.54
2024-01-15T13:15:07.359Z,15.58
2024-01-15T13:17:34.341Z,15.65
2024-01-15T13:20:01.872Z,15.64
2024-01-15T13:22:33.973Z,15.73
2024-01-15T13:25:01.752Z,15.67
2024-01-15T13:27:29.618Z,15.63
2024-01-15T13:29:57.046Z,15.70
2024-01-15T13:32:27.700Z,15.74
2024-01-15T13:34:58.330Z,15.65
2024-01-15T13:37:29.006Z,15.57
2024-01-15T13:39:56.282Z,15.68
2024-01-15T13:42:24.028Z,15.71
2024-01-15T13:44:51.322Z,15.53
2024-01-15T13:47:18.391Z,15.72
2024-01-15T13:49:45.560Z,15.60
2024-01-15T13:52:14.210Z,15.78
2024-01-15T13:54:49.218Z,15.79
2024-01-15T13:57:21.514Z,15.75
2024-01-15T13:59:48.776Z,15.80
2024-01-15T14:02:19.334Z,15.80
2024-01-15T14:04:51.265Z,15.82
2024-01-15T14:07:18.485Z,15.78
2024-01-15T14:09:45.591Z,15.78
2024-01-15T14:12:13.429Z,15.83
2024-01-15T14:14:41.619Z,15.72
2024-01-15T14:17:08.712Z,15.77
2024-01-15T14:19:36.152Z,15.80
2024-01-15T14:22:03.174Z,15.84
2024-01-15T14:24:30.149Z,15.79
2024-01-15T14:26:58.355Z,15.86
2024-01-15T14:29:27.469Z,15.80
2024-01-15T14:31:54.792Z,15.87
2024-01-15T14:34:25.390Z,15.85
2024-01-15T14:36:55.506Z,15.90
2024-01-15T14:39:26.021Z,15.83
2024-01-15T14:41:53.765Z,15.75
2024-01-15T14:44:20.635Z,15.84
2024-01-15T14:46:47.798Z,15.80
2024-01-15T14:49:16.195Z,15.84
2024-01-15T14:51:43.651Z,15.78
2024-01-15T14:54:10.657Z,15.84
2024-01-15T14:56:37.616Z,15.86
2024-01-15T14:59:04.501Z,15.87
2024-01-15T15:01:31.918Z,15.87
2024-01-15T15:03:59.721Z,15.82
2024-01-15T15:06:29.543Z,15.86
2024-01-15T15:08:58.893Z,15.86
2024-01-15T15:11:29.048Z,15.77
2024-01-15T15:13:56.008Z,15.92
2024-01-15T15:16:23.040Z,15.91
2024-01-15T15:18:50.310Z,15.92
2024-01-15T15:21:17.807Z,15.81
2024-01-15T15:23:45.126Z,15.86
2024-01-15T15:26:12.036Z,15.87
2024-01-15T15:28:38.902Z,15.85
2024-01-15T15:31:10.049Z,15.76
2024-01-15T15:33:37.493Z,15.72
2024-01-15T15:36:06.611Z,15.66
2024-01-15T15:38:34.083Z,15.67
2024-01-15T15:41:01.386Z,15.59
2024-01-15T15:43:28.742Z,15.65
2024-01-15T15:45:56.294Z,15.56
2024-01-15T15:48:23.485Z,15.58
2024-01-15T15:50:51.792Z,15.56
2024-01-15T15:53:21.205Z,15.57
2024-01-15T15:55:48.097Z,15.58
2024-01-15T15:58:15.044Z,15.52
2024-01-15T16:00:42.233Z,15.50
2024-01-15T16:03:10.027Z,15.50
2024-01-15T16:05:45.058Z,15.48
2024-01-15T16:08:18.869Z,15.50
2024-01-15T16:10:47.839Z,15.48
2024-01-15T16:13:15.329Z,15.48
2024-01-15T16:15:42.627Z,15.52
2024-01-15T16:23:19.104Z,15.53
2024-01-15T16:23:33.653Z,15.57
2024-01-15T16:24:08.629Z,15.56
2024-01-15T16:26:31.516Z,15.56
2024-01-15T16:29:00.730Z,15.57
2024-01-15T16:31:28.688Z,15.53
2024-01-15T16:34:01.726Z,15.56
2024-01-15T16:36:32.659Z,15.41
2024-01-15T16:38:59.999Z,15.60
2024-01-15T16:41:26.980Z,15.60
2024-01-15T16:43:54.092Z,15.47
2024-01-15T16:46:21.055Z,15.46
2024-01-15T16:48:48.181Z,15.46
2024-01-15T16:51:15.160Z,15.54
2024-01-15T16:53:42.649Z,15.54
2024-01-15T16:56:09.594Z,15.53
2024-01-15T16:58:36.502Z,15.55
2024-01-15T17:01:03.599Z,15.56
2024-01-15T17:03:30.740Z,15.56
2024-01-15T17:05:57.790Z,15.51
2024-01-15T17:08:25.985Z,15.45
2024-01-15T17:10:52.975Z,15.38
2024-01-15T17:13:19.829Z,15.41
2024-01-15T17:15:47.202Z,15.37
2024-01-15T17:18:14.267Z,15.37
2024-01-15T17:20:43.988Z,15.38
2024-01-15T17:23:10.850Z,15.41
2024-01-15T17:25:38.088Z,15.38
2024-01-15T17:28:05.334Z,15.38
2024-01-15T17:30:32.529Z,15.34
2024-01-15T17:32:59.575Z,15.33
2024-01-15T17:35:27.041Z,15.32
2024-01-15T17:37:54.063Z,15.32
2024-01-15T17:40:21.016Z,15.31
2024-01-15T17:42:48.735Z,15.33
2024-01-15T17:45:16.535Z,15.25
2024-01-15T17:47:43.544Z,15.31
2024-01-15T17:50:10.899Z,15.24
2024-01-15T17:52:37.976Z,15.26
2024-01-15T17:55:05.236Z,15.06
2024-01-15T17:57:32.099Z,15.23
2024-01-15T17:59:59.121Z,15.21
2024-01-15T18:02:26.097Z,15.21
2024-01-15T18:04:53.086Z,15.15
2024-01-15T18:07:21.397Z,14.95
2024-01-15T18:09:48.517Z,15.20
2024-01-15T18:12:15.643Z,15.18
2024-01-15T18:14:43.480Z,15.13
2024-01-15T18:17:10.472Z,14.91
2024-01-15T18:19:37.405Z,15.11
2024-01-15T18:22:04.579Z,15.14
2024-01-15T18:24:31.613Z,15.15
2024-01-15T18:26:58.524Z,15.14
2024-01-15T18:29:26.080Z,15.12
2024-01-15T18:31:53.639Z,14.92
2024-01-15T18:34:20.677Z,15.12
2024-01-15T18:36:49.288Z,15.14
2024-01-15T18:39:18.139Z,15.14
2024-01-15T18:41:45.563Z,15.05
2024-01-15T18:44:15.690Z,15.11
2024-01-15T18:46:44.941Z,15.09
2024-01-15T18:49:12.688Z,15.02
2024-01-15T18:51:39.706Z,15.02
2024-01-15T18:54:06.586Z,15.09
2024-01-15T18:56:36.784Z,15.09
2024-01-15T18:59:03.792Z,15.09
2024-01-15T19:01:31.675Z,15.09
2024-01-15T19:03:58.718Z,15.07
2024-01-15T19:06:25.981Z,15.02
2024-01-15T19:08:52.998Z,14.97
2024-01-15T19:11:20.160Z,15.07
2024-01-15T19:13:47.225Z,14.98
2024-01-15T19:16:15.117Z,15.07
2024-01-15T19:18:42.114Z,15.03
2024-01-15T19:21:09.263Z,15.10
2024-01-15T19:23:36.357Z,15.11
2024-01-15T19:26:04.261Z,15.07
2024-01-15T19:28:31.570Z,15.02
2024-01-15T19:30:58.450Z,15.09
2024-01-15T19:33:25.427Z,15.10
2024-01-15T19:35:52.562Z,15.10
2024-01-15T19:38:19.417Z,15.12
2024-01-15T19:40:46.275Z,15.05
2024-01-15T19:43:13.553Z,15.10
2024-01-15T19:45:40.473Z,15.11
2024-01-15T19:48:07.700Z,15.10
2024-01-15T19:50:34.791Z,15.09
2024-01-15T19:53:01.694Z,15.11
2024-01-15T19:55:28.557Z,15.14
2024-01-15T19:57:55.571Z,15.11
2024-01-15T20:00:22.429Z,15.14
2024-01-15T20:02:49.441Z,15.09
2024-01-15T20:05:17.471Z,15.09
2024-01-15T20:07:45.151Z,15.13
2024-01-15T20:10:12.201Z,15.10
2024-01-15T20:12:40.204Z,15.09
2024-01-15T20:15:07.494Z,15.12
2024-01-15T20:17:34.528Z,15.13
2024-01-15T20:20:03.331Z,15.13
2024-01-15T20:22:33.223Z,15.11
2024-01-15T20:25:01.731Z,15.08
2024-01-15T20:27:29.605Z,15.10
2024-01-15T20:29:58.839Z,15.06
2024-01-15T20:32:25.877Z,15.03
2024-01-15T20:34:53.034Z,15.02
2024-01-15T20:37:20.433Z,15.07
2024-01-15T20:39:47.370Z,15.08
2024-01-15T20:42:14.376Z,15.07
2024-01-15T20:44:41.986Z,15.05
2024-01-15T20:47:09.781Z,15.08
2024-01-15T20:49:36.875Z,15.10
2024-01-15T20:52:04.686Z,15.10
2024-01-15T20:54:31.517Z,15.09
2024-01-15T20:57:02.318Z,15.14
2024-01-15T20:59:29.409Z,15.12
2024-01-15T21:01:56.424Z,15.16
2024-01-15T21:04:23.636Z,15.16
2024-01-15T21:06:52.053Z,15.16
2024-01-15T21:09:18.885Z,15.14
2024-01-15T21:11:46.385Z,15.16
2024-01-15T21:14:19.637Z,15.16
2024-01-15T21:16:47.884Z,15.19
2024-01-15T21:19:15.054Z,15.15
2024-01-15T21:21:41.960Z,15.12
2024-01-15T21:24:09.514Z,15.16
2024-01-15T21:26:36.602Z,15.16
2024-01-15T21:29:03.581Z,15.21
2024-01-15T21:31:30.811Z,15.14
2024-01-15T21:33:57.894Z,15.18
2024-01-15T21:36:24.825Z,15.14
2024-01-15T21:38:51.796Z,15.17
2024-01-15T21:41:18.679Z,15.15
2024-01-15T21:43:45.571Z,15.10
2024-01-15T21:46:14.027Z,15.07
2024-01-15T21:48:42.761Z,15.02
2024-01-15T21:51:09.916Z,15.03
2024-01-15T21:53:37.193Z,14.97
2024-01-15T21:56:04.494Z,14.92
2024-01-15T21:58:33.493Z,14.73
2024-01-15T22:01:00.691Z,14.84
2024-01-15T22:03:28.914Z,14.80
2024-01-15T22:05:56.464Z,14.77
2024-01-15T22:08:23.782Z,14.79
2024-01-15T22:10:51.132Z,14.78
2024-01-15T22:13:18.053Z,14.78
2024-01-15T22:15:45.069Z,14.74
2024-01-15T22:18:12.270Z,14.76
2024-01-15T22:20:41.263Z,14.73
2024-01-15T22:23:08.234Z,14.77
2024-01-15T22:25:35.084Z,14.72
2024-01-15T22:28:02.002Z,14.75
2024-01-15T22:30:28.990Z,14.75
2024-01-15T22:32:56.134Z,14.70
2024-01-15T22:35:23.072Z,14.73
2024-01-15T22:37:50.099Z,14.72
2024-01-15T22:40:17.377Z,14.71
2024-01-15T22:42:44.374Z,14.66
2024-01-15T22:45:15.718Z,14.70
2024-01-15T22:47:44.213Z,14.68
2024-01-15T22:50:11.502Z,14.70
2024-01-15T22:52:40.273Z,14.70
2024-01-15T22:55:08.180Z,14.74
2024-01-15T22:57:35.552Z,14.75
2024-01-15T23:00:02.623Z,14.80
2024-01-15T23:02:29.595Z,14.82
2024-01-15T23:04:56.533Z,14.79
2024-01-15T23:07:23.554Z,14.77
2024-01-15T23:09:51.196Z,14.68
2024-01-15T23:12:18.055Z,14.72
2024-01-15T23:14:45.212Z,14.65
2024-01-15T23:17:12.271Z,14.69
2024-01-15T23:19:39.216Z,14.67
2024-01-15T23:22:06.485Z,14.63
2024-01-15T23:24:33.357Z,14.67
2024-01-15T23:27:00.586Z,14.67
2024-01-15T23:29:27.566Z,14.67
2024-01-15T23:31:54.479Z,14.69
2024-01-15T23:34:21.475Z,14.70
2024-01-15T23:36:48.528Z,14.69
2024-01-15T23:39:15.383Z,14.65
2024-01-15T23:41:42.472Z,14.71
2024-01-15T23:44:09.566Z,14.67
2024-01-15T23:46:37.804Z,14.71
2024-01-15T23:49:04.818Z,14.73
2024-01-15T23:51:32.717Z,14.75
2024-01-15T23:53:59.587Z,14.72
2024-01-15T23:56:26.487Z,14.69
2024-01-15T23:58:53.710Z,14.75
